West Little Rock, Arkansas
Current Conditions -  °F | °C
As of 10:53 AM on Wednesday 26 Nov 2014 (Local Time) from KLIT Reporting Station
Overcast Overcast  
Wind Chill: 40°   Ceiling: 25000
Heat Index: 45°   Visibility: 10mi
Dew Point: 33°   Wind: 9mph
Humidity: 63%   Direction: 260°W
Pressure: 30.03"   Gusts: NA
Location:  34.78°N, 92.27°W
Report Text: KLIT 261653Z 26008KT 10SM SCT100 OVC250 07/01 A3003 RMK AO2 SLP173 BINOVC T00720006
Loading
Personal Weather Stations






























Interactive Weather Map New forecast layout! Learn more

10-Day Weather Forecast

Advertisements
Track Severe Weather on mobile